sensor_id;sensor_type;location;lat;lon;timestamp;P1;durP1;ratioP1;P2;durP2;ratioP2
11488;SDS011;5801;50.804;12.638;2023-05-17T00:02:03;0.80;;;0.80;;
11488;SDS011;5801;50.804;12.638;2023-05-17T00:04:29;2.97;;;1.20;;
11488;SDS011;5801;50.804;12.638;2023-05-17T00:06:55;6.82;;;1.30;;
11488;SDS011;5801;50.804;12.638;2023-05-17T00:09:21;1.20;;;1.00;;
11488;SDS011;5801;50.804;12.638;2023-05-17T00:11:47;1.33;;;0.95;;
11488;SDS011;5801;50.804;12.638;2023-05-17T00:14:13;1.05;;;1.05;;
11488;SDS011;5801;50.804;12.638;2023-05-17T00:16:39;1.60;;;1.10;;
11488;SDS011;5801;50.804;12.638;2023-05-17T00:19:05;1.05;;;1.00;;
11488;SDS011;5801;50.804;12.638;2023-05-17T00:21:30;1.42;;;1.10;;
11488;SDS011;5801;50.804;12.638;2023-05-17T00:23:56;1.55;;;1.10;;
11488;SDS011;5801;50.804;12.638;2023-05-17T00:26:22;2.45;;;1.13;;
11488;SDS011;5801;50.804;12.638;2023-05-17T00:28:48;10.40;;;1.63;;
11488;SDS011;5801;50.804;12.638;2023-05-17T00:31:14;1.67;;;1.10;;
11488;SDS011;5801;50.804;12.638;2023-05-17T00:33:40;0.93;;;0.93;;
11488;SDS011;5801;50.804;12.638;2023-05-17T00:36:06;1.92;;;0.90;;
11488;SDS011;5801;50.804;12.638;2023-05-17T00:38:32;1.02;;;0.95;;
11488;SDS011;5801;50.804;12.638;2023-05-17T00:40:58;3.92;;;1.10;;
11488;SDS011;5801;50.804;12.638;2023-05-17T00:43:24;5.45;;;1.55;;
11488;SDS011;5801;50.804;12.638;2023-05-17T00:45:50;1.17;;;0.93;;
11488;SDS011;5801;50.804;12.638;2023-05-17T00:48:16;1.15;;;0.95;;
11488;SDS011;5801;50.804;12.638;2023-05-17T00:50:44;1.35;;;1.13;;
11488;SDS011;5801;50.804;12.638;2023-05-17T00:53:11;4.57;;;1.58;;
11488;SDS011;5801;50.804;12.638;2023-05-17T00:55:40;0.80;;;0.80;;
11488;SDS011;5801;50.804;12.638;2023-05-17T00:58:06;1.27;;;0.90;;
11488;SDS011;5801;50.804;12.638;2023-05-17T01:00:32;1.02;;;0.93;;
11488;SDS011;5801;50.804;12.638;2023-05-17T01:02:58;1.75;;;1.17;;
11488;SDS011;5801;50.804;12.638;2023-05-17T01:05:25;1.67;;;1.00;;
11488;SDS011;5801;50.804;12.638;2023-05-17T01:07:52;2.35;;;0.90;;
11488;SDS011;5801;50.804;12.638;2023-05-17T01:10:18;1.30;;;1.20;;
11488;SDS011;5801;50.804;12.638;2023-05-17T01:12:49;3.75;;;0.90;;
11488;SDS011;5801;50.804;12.638;2023-05-17T01:20:15;1.13;;;0.80;;
11488;SDS011;5801;50.804;12.638;2023-05-17T01:22:43;5.60;;;1.27;;
11488;SDS011;5801;50.804;12.638;2023-05-17T01:25:14;1.08;;;1.05;;
11488;SDS011;5801;50.804;12.638;2023-05-17T01:27:44;1.08;;;0.98;;
11488;SDS011;5801;50.804;12.638;2023-05-17T01:30:12;2.45;;;1.10;;
11488;SDS011;5801;50.804;12.638;2023-05-17T01:32:41;1.08;;;1.08;;
11488;SDS011;5801;50.804;12.638;2023-05-17T01:35:07;1.60;;;1.13;;
11488;SDS011;5801;50.804;12.638;2023-05-17T01:37:33;0.80;;;0.80;;
11488;SDS011;5801;50.804;12.638;2023-05-17T01:39:59;3.33;;;1.67;;
11488;SDS011;5801;50.804;12.638;2023-05-17T01:42:28;0.70;;;0.60;;
11488;SDS011;5801;50.804;12.638;2023-05-17T01:44:59;1.17;;;1.08;;
11488;SDS011;5801;50.804;12.638;2023-05-17T01:49:53;1.63;;;1.02;;
11488;SDS011;5801;50.804;12.638;2023-05-17T01:52:23;2.88;;;1.60;;
11488;SDS011;5801;50.804;12.638;2023-05-17T01:54:52;2.20;;;1.48;;
11488;SDS011;5801;50.804;12.638;2023-05-17T01:57:19;1.13;;;0.93;;
11488;SDS011;5801;50.804;12.638;2023-05-17T01:59:49;1.00;;;0.98;;
11488;SDS011;5801;50.804;12.638;2023-05-17T02:02:16;1.65;;;0.98;;
11488;SDS011;5801;50.804;12.638;2023-05-17T02:04:46;0.93;;;0.93;;
11488;SDS011;5801;50.804;12.638;2023-05-17T02:07:12;1.58;;;1.15;;
11488;SDS011;5801;50.804;12.638;2023-05-17T02:09:38;2.95;;;1.17;;
11488;SDS011;5801;50.804;12.638;2023-05-17T02:12:04;1.23;;;1.13;;
11488;SDS011;5801;50.804;12.638;2023-05-17T02:14:30;5.38;;;1.10;;
11488;SDS011;5801;50.804;12.638;2023-05-17T02:16:56;1.92;;;1.33;;
11488;SDS011;5801;50.804;12.638;2023-05-17T02:19:22;0.90;;;0.90;;
11488;SDS011;5801;50.804;12.638;2023-05-17T02:21:48;0.90;;;0.90;;
11488;SDS011;5801;50.804;12.638;2023-05-17T02:24:14;1.02;;;0.93;;
11488;SDS011;5801;50.804;12.638;2023-05-17T02:26:40;0.98;;;0.95;;
11488;SDS011;5801;50.804;12.638;2023-05-17T02:29:07;0.73;;;0.73;;
11488;SDS011;5801;50.804;12.638;2023-05-17T02:31:34;1.77;;;1.02;;
11488;SDS011;5801;50.804;12.638;2023-05-17T02:34:00;1.98;;;1.77;;
11488;SDS011;5801;50.804;12.638;2023-05-17T02:36:26;1.30;;;1.20;;
11488;SDS011;5801;50.804;12.638;2023-05-17T02:38:52;4.85;;;1.70;;
11488;SDS011;5801;50.804;12.638;2023-05-17T02:41:18;2.47;;;1.42;;
11488;SDS011;5801;50.804;12.638;2023-05-17T02:43:44;2.15;;;1.55;;
11488;SDS011;5801;50.804;12.638;2023-05-17T02:46:10;1.25;;;1.15;;
11488;SDS011;5801;50.804;12.638;2023-05-17T02:48:36;1.40;;;1.30;;
11488;SDS011;5801;50.804;12.638;2023-05-17T02:51:02;5.70;;;1.23;;
11488;SDS011;5801;50.804;12.638;2023-05-17T02:53:28;1.00;;;1.00;;
11488;SDS011;5801;50.804;12.638;2023-05-17T02:55:54;0.93;;;0.90;;
11488;SDS011;5801;50.804;12.638;2023-05-17T02:58:22;1.58;;;1.00;;
11488;SDS011;5801;50.804;12.638;2023-05-17T03:00:48;2.15;;;1.20;;
11488;SDS011;5801;50.804;12.638;2023-05-17T03:03:14;2.40;;;1.52;;
11488;SDS011;5801;50.804;12.638;2023-05-17T03:05:40;1.63;;;1.42;;
11488;SDS011;5801;50.804;12.638;2023-05-17T03:08:06;1.20;;;1.10;;
11488;SDS011;5801;50.804;12.638;2023-05-17T03:10:32;3.33;;;1.27;;
11488;SDS011;5801;50.804;12.638;2023-05-17T03:12:58;2.05;;;1.40;;
11488;SDS011;5801;50.804;12.638;2023-05-17T03:15:25;5.00;;;1.23;;
11488;SDS011;5801;50.804;12.638;2023-05-17T03:17:53;2.13;;;1.27;;
11488;SDS011;5801;50.804;12.638;2023-05-17T03:20:19;1.23;;;1.13;;
11488;SDS011;5801;50.804;12.638;2023-05-17T03:22:45;2.58;;;2.10;;
11488;SDS011;5801;50.804;12.638;2023-05-17T03:25:11;4.53;;;1.73;;
11488;SDS011;5801;50.804;12.638;2023-05-17T03:27:37;3.30;;;1.08;;
11488;SDS011;5801;50.804;12.638;2023-05-17T03:30:03;1.50;;;1.30;;
11488;SDS011;5801;50.804;12.638;2023-05-17T03:32:29;2.35;;;1.33;;
11488;SDS011;5801;50.804;12.638;2023-05-17T03:34:55;1.33;;;1.20;;
11488;SDS011;5801;50.804;12.638;2023-05-17T03:37:21;1.48;;;1.35;;
11488;SDS011;5801;50.804;12.638;2023-05-17T03:39:47;2.15;;;1.42;;
11488;SDS011;5801;50.804;12.638;2023-05-17T03:42:13;3.55;;;1.70;;
11488;SDS011;5801;50.804;12.638;2023-05-17T03:44:39;3.90;;;1.70;;
11488;SDS011;5801;50.804;12.638;2023-05-17T03:47:05;3.67;;;2.10;;
11488;SDS011;5801;50.804;12.638;2023-05-17T03:49:31;8.52;;;2.30;;
11488;SDS011;5801;50.804;12.638;2023-05-17T03:51:57;2.83;;;2.03;;
11488;SDS011;5801;50.804;12.638;2023-05-17T03:54:23;2.22;;;1.77;;
11488;SDS011;5801;50.804;12.638;2023-05-17T03:56:49;3.38;;;2.22;;
11488;SDS011;5801;50.804;12.638;2023-05-17T03:59:14;1.70;;;1.45;;
11488;SDS011;5801;50.804;12.638;2023-05-17T04:01:41;2.10;;;1.67;;
11488;SDS011;5801;50.804;12.638;2023-05-17T04:04:07;5.85;;;1.77;;
11488;SDS011;5801;50.804;12.638;2023-05-17T04:06:33;2.85;;;1.45;;
11488;SDS011;5801;50.804;12.638;2023-05-17T04:08:59;2.83;;;1.92;;
11488;SDS011;5801;50.804;12.638;2023-05-17T04:11:25;1.77;;;1.48;;
11488;SDS011;5801;50.804;12.638;2023-05-17T04:13:52;2.47;;;2.03;;
11488;SDS011;5801;50.804;12.638;2023-05-17T04:16:18;3.83;;;2.55;;
11488;SDS011;5801;50.804;12.638;2023-05-17T04:18:44;2.50;;;2.05;;
11488;SDS011;5801;50.804;12.638;2023-05-17T04:21:10;4.57;;;2.10;;
11488;SDS011;5801;50.804;12.638;2023-05-17T04:23:36;3.30;;;1.90;;
11488;SDS011;5801;50.804;12.638;2023-05-17T04:26:02;5.15;;;1.90;;
11488;SDS011;5801;50.804;12.638;2023-05-17T04:28:29;2.03;;;1.55;;
11488;SDS011;5801;50.804;12.638;2023-05-17T04:30:55;2.20;;;1.88;;
11488;SDS011;5801;50.804;12.638;2023-05-17T04:33:22;3.13;;;1.65;;
11488;SDS011;5801;50.804;12.638;2023-05-17T04:35:48;2.17;;;1.50;;
11488;SDS011;5801;50.804;12.638;2023-05-17T04:38:14;1.77;;;1.67;;
11488;SDS011;5801;50.804;12.638;2023-05-17T04:40:40;1.70;;;1.42;;
11488;SDS011;5801;50.804;12.638;2023-05-17T04:43:06;1.63;;;1.52;;
11488;SDS011;5801;50.804;12.638;2023-05-17T04:45:32;1.45;;;1.35;;
11488;SDS011;5801;50.804;12.638;2023-05-17T04:47:58;2.33;;;1.52;;
11488;SDS011;5801;50.804;12.638;2023-05-17T04:50:25;2.22;;;1.77;;
11488;SDS011;5801;50.804;12.638;2023-05-17T04:52:51;3.88;;;2.13;;
11488;SDS011;5801;50.804;12.638;2023-05-17T04:55:17;2.90;;;1.85;;
11488;SDS011;5801;50.804;12.638;2023-05-17T04:57:43;2.10;;;1.90;;
11488;SDS011;5801;50.804;12.638;2023-05-17T05:00:09;2.65;;;2.15;;
11488;SDS011;5801;50.804;12.638;2023-05-17T05:02:35;2.95;;;2.00;;
11488;SDS011;5801;50.804;12.638;2023-05-17T05:05:02;2.83;;;2.03;;
11488;SDS011;5801;50.804;12.638;2023-05-17T05:07:31;3.28;;;2.10;;
11488;SDS011;5801;50.804;12.638;2023-05-17T05:09:57;18.05;;;2.38;;
11488;SDS011;5801;50.804;12.638;2023-05-17T05:12:23;5.10;;;2.33;;
11488;SDS011;5801;50.804;12.638;2023-05-17T05:14:49;3.08;;;2.60;;
11488;SDS011;5801;50.804;12.638;2023-05-17T05:17:15;2.85;;;2.50;;
11488;SDS011;5801;50.804;12.638;2023-05-17T05:19:41;3.63;;;2.42;;
11488;SDS011;5801;50.804;12.638;2023-05-17T05:22:07;4.53;;;2.65;;
11488;SDS011;5801;50.804;12.638;2023-05-17T05:24:33;8.07;;;3.38;;
11488;SDS011;5801;50.804;12.638;2023-05-17T05:26:59;6.05;;;2.83;;
11488;SDS011;5801;50.804;12.638;2023-05-17T05:29:25;11.43;;;2.80;;
11488;SDS011;5801;50.804;12.638;2023-05-17T05:31:51;2.90;;;2.53;;
11488;SDS011;5801;50.804;12.638;2023-05-17T05:34:17;4.25;;;2.58;;
11488;SDS011;5801;50.804;12.638;2023-05-17T05:36:42;4.90;;;2.90;;
11488;SDS011;5801;50.804;12.638;2023-05-17T05:39:08;4.88;;;2.55;;
11488;SDS011;5801;50.804;12.638;2023-05-17T05:41:34;5.25;;;2.35;;
11488;SDS011;5801;50.804;12.638;2023-05-17T05:44:00;10.13;;;2.85;;
11488;SDS011;5801;50.804;12.638;2023-05-17T05:46:26;3.58;;;2.15;;
11488;SDS011;5801;50.804;12.638;2023-05-17T05:48:52;4.07;;;2.72;;
11488;SDS011;5801;50.804;12.638;2023-05-17T05:51:18;3.85;;;2.50;;
11488;SDS011;5801;50.804;12.638;2023-05-17T05:53:44;3.75;;;2.30;;
11488;SDS011;5801;50.804;12.638;2023-05-17T05:56:10;4.60;;;2.70;;
11488;SDS011;5801;50.804;12.638;2023-05-17T05:58:36;8.38;;;2.22;;
11488;SDS011;5801;50.804;12.638;2023-05-17T06:01:02;5.18;;;2.25;;
11488;SDS011;5801;50.804;12.638;2023-05-17T06:03:28;6.57;;;2.25;;
11488;SDS011;5801;50.804;12.638;2023-05-17T06:05:54;8.27;;;2.63;;
11488;SDS011;5801;50.804;12.638;2023-05-17T06:08:20;13.00;;;2.47;;
11488;SDS011;5801;50.804;12.638;2023-05-17T06:10:46;2.80;;;2.17;;
11488;SDS011;5801;50.804;12.638;2023-05-17T06:13:12;4.38;;;2.17;;
11488;SDS011;5801;50.804;12.638;2023-05-17T06:15:38;2.45;;;2.10;;
11488;SDS011;5801;50.804;12.638;2023-05-17T06:18:05;6.30;;;3.03;;
11488;SDS011;5801;50.804;12.638;2023-05-17T06:20:31;5.03;;;2.22;;
11488;SDS011;5801;50.804;12.638;2023-05-17T06:22:56;2.67;;;2.08;;
11488;SDS011;5801;50.804;12.638;2023-05-17T06:25:22;2.88;;;1.77;;
11488;SDS011;5801;50.804;12.638;2023-05-17T06:27:48;6.15;;;2.08;;
11488;SDS011;5801;50.804;12.638;2023-05-17T06:30:14;5.63;;;2.03;;
11488;SDS011;5801;50.804;12.638;2023-05-17T06:32:40;5.13;;;2.22;;
11488;SDS011;5801;50.804;12.638;2023-05-17T06:35:06;5.70;;;2.30;;
11488;SDS011;5801;50.804;12.638;2023-05-17T06:37:32;5.35;;;2.30;;
11488;SDS011;5801;50.804;12.638;2023-05-17T06:40:05;5.53;;;2.38;;
11488;SDS011;5801;50.804;12.638;2023-05-17T06:42:31;6.20;;;2.42;;
11488;SDS011;5801;50.804;12.638;2023-05-17T06:44:58;5.13;;;2.47;;
11488;SDS011;5801;50.804;12.638;2023-05-17T06:47:24;4.22;;;2.45;;
11488;SDS011;5801;50.804;12.638;2023-05-17T06:49:50;7.68;;;2.47;;
11488;SDS011;5801;50.804;12.638;2023-05-17T06:52:16;8.85;;;3.10;;
11488;SDS011;5801;50.804;12.638;2023-05-17T06:54:42;6.03;;;2.67;;
11488;SDS011;5801;50.804;12.638;2023-05-17T06:57:08;8.20;;;2.80;;
11488;SDS011;5801;50.804;12.638;2023-05-17T06:59:37;2.97;;;2.45;;
11488;SDS011;5801;50.804;12.638;2023-05-17T07:02:03;8.15;;;2.75;;
11488;SDS011;5801;50.804;12.638;2023-05-17T07:04:29;4.90;;;2.25;;
11488;SDS011;5801;50.804;12.638;2023-05-17T07:06:55;9.45;;;2.67;;
11488;SDS011;5801;50.804;12.638;2023-05-17T07:09:21;6.50;;;2.53;;
11488;SDS011;5801;50.804;12.638;2023-05-17T07:11:47;3.53;;;2.45;;
11488;SDS011;5801;50.804;12.638;2023-05-17T07:14:13;11.13;;;3.17;;
11488;SDS011;5801;50.804;12.638;2023-05-17T07:16:39;8.27;;;3.30;;
11488;SDS011;5801;50.804;12.638;2023-05-17T07:19:05;5.95;;;2.50;;
11488;SDS011;5801;50.804;12.638;2023-05-17T07:21:31;9.43;;;2.63;;
11488;SDS011;5801;50.804;12.638;2023-05-17T07:23:58;10.02;;;2.80;;
11488;SDS011;5801;50.804;12.638;2023-05-17T07:26:24;9.77;;;3.05;;
11488;SDS011;5801;50.804;12.638;2023-05-17T07:28:49;7.43;;;3.45;;
11488;SDS011;5801;50.804;12.638;2023-05-17T07:31:15;8.10;;;3.70;;
11488;SDS011;5801;50.804;12.638;2023-05-17T07:33:41;6.72;;;3.38;;
11488;SDS011;5801;50.804;12.638;2023-05-17T07:36:07;5.88;;;2.85;;
11488;SDS011;5801;50.804;12.638;2023-05-17T07:38:42;7.28;;;2.75;;
11488;SDS011;5801;50.804;12.638;2023-05-17T07:41:08;4.53;;;3.05;;
11488;SDS011;5801;50.804;12.638;2023-05-17T07:46:28;9.88;;;4.10;;
11488;SDS011;5801;50.804;12.638;2023-05-17T07:48:54;9.93;;;3.92;;
11488;SDS011;5801;50.804;12.638;2023-05-17T07:51:20;6.70;;;3.42;;
11488;SDS011;5801;50.804;12.638;2023-05-17T07:53:45;9.25;;;3.00;;
11488;SDS011;5801;50.804;12.638;2023-05-17T07:56:11;8.63;;;3.67;;
11488;SDS011;5801;50.804;12.638;2023-05-17T07:58:36;12.15;;;3.63;;
11488;SDS011;5801;50.804;12.638;2023-05-17T08:01:02;10.63;;;3.50;;
11488;SDS011;5801;50.804;12.638;2023-05-17T08:03:28;5.75;;;3.22;;
11488;SDS011;5801;50.804;12.638;2023-05-17T08:05:54;10.27;;;3.63;;
11488;SDS011;5801;50.804;12.638;2023-05-17T08:08:20;6.85;;;3.22;;
11488;SDS011;5801;50.804;12.638;2023-05-17T08:10:46;6.35;;;2.92;;
11488;SDS011;5801;50.804;12.638;2023-05-17T08:13:12;6.45;;;3.60;;
11488;SDS011;5801;50.804;12.638;2023-05-17T08:15:38;9.30;;;3.75;;
11488;SDS011;5801;50.804;12.638;2023-05-17T08:18:04;5.97;;;2.72;;
11488;SDS011;5801;50.804;12.638;2023-05-17T08:20:30;10.48;;;2.85;;
11488;SDS011;5801;50.804;12.638;2023-05-17T08:22:59;4.85;;;2.38;;
11488;SDS011;5801;50.804;12.638;2023-05-17T08:25:25;10.18;;;2.95;;
11488;SDS011;5801;50.804;12.638;2023-05-17T08:27:51;8.85;;;2.30;;
11488;SDS011;5801;50.804;12.638;2023-05-17T08:30:16;13.38;;;2.40;;
11488;SDS011;5801;50.804;12.638;2023-05-17T08:32:42;8.60;;;2.65;;
11488;SDS011;5801;50.804;12.638;2023-05-17T08:35:09;9.30;;;1.92;;
11488;SDS011;5801;50.804;12.638;2023-05-17T08:37:35;7.53;;;2.60;;
11488;SDS011;5801;50.804;12.638;2023-05-17T08:40:01;11.98;;;2.90;;
11488;SDS011;5801;50.804;12.638;2023-05-17T08:42:28;6.03;;;2.28;;
11488;SDS011;5801;50.804;12.638;2023-05-17T08:44:54;6.38;;;2.53;;
11488;SDS011;5801;50.804;12.638;2023-05-17T08:47:20;3.97;;;2.17;;
11488;SDS011;5801;50.804;12.638;2023-05-17T08:49:58;7.85;;;2.28;;
11488;SDS011;5801;50.804;12.638;2023-05-17T08:52:26;3.85;;;2.35;;
11488;SDS011;5801;50.804;12.638;2023-05-17T08:54:54;14.43;;;2.35;;
11488;SDS011;5801;50.804;12.638;2023-05-17T08:57:20;10.70;;;2.28;;
11488;SDS011;5801;50.804;12.638;2023-05-17T08:59:48;7.32;;;2.83;;
11488;SDS011;5801;50.804;12.638;2023-05-17T09:02:15;6.05;;;2.30;;
11488;SDS011;5801;50.804;12.638;2023-05-17T09:04:41;9.40;;;2.22;;
11488;SDS011;5801;50.804;12.638;2023-05-17T09:07:08;8.25;;;2.42;;
11488;SDS011;5801;50.804;12.638;2023-05-17T09:09:33;3.80;;;2.15;;
11488;SDS011;5801;50.804;12.638;2023-05-17T09:11:59;3.83;;;1.83;;
11488;SDS011;5801;50.804;12.638;2023-05-17T09:14:31;7.15;;;2.20;;
11488;SDS011;5801;50.804;12.638;2023-05-17T09:16:59;7.32;;;2.20;;
11488;SDS011;5801;50.804;12.638;2023-05-17T09:19:26;9.70;;;1.90;;
11488;SDS011;5801;50.804;12.638;2023-05-17T09:21:54;4.45;;;2.55;;
11488;SDS011;5801;50.804;12.638;2023-05-17T09:24:26;4.10;;;2.00;;
11488;SDS011;5801;50.804;12.638;2023-05-17T09:27:06;8.60;;;2.40;;
11488;SDS011;5801;50.804;12.638;2023-05-17T09:29:32;6.07;;;2.60;;
11488;SDS011;5801;50.804;12.638;2023-05-17T09:32:10;6.35;;;1.92;;
11488;SDS011;5801;50.804;12.638;2023-05-17T09:34:37;7.63;;;2.20;;
11488;SDS011;5801;50.804;12.638;2023-05-17T09:37:04;6.68;;;2.00;;
11488;SDS011;5801;50.804;12.638;2023-05-17T09:39:31;5.25;;;1.85;;
11488;SDS011;5801;50.804;12.638;2023-05-17T09:41:57;5.85;;;2.42;;
11488;SDS011;5801;50.804;12.638;2023-05-17T09:44:23;7.03;;;2.28;;
11488;SDS011;5801;50.804;12.638;2023-05-17T09:46:49;2.05;;;1.85;;
11488;SDS011;5801;50.804;12.638;2023-05-17T09:49:14;4.97;;;2.03;;
11488;SDS011;5801;50.804;12.638;2023-05-17T09:51:41;4.75;;;2.35;;
11488;SDS011;5801;50.804;12.638;2023-05-17T09:54:09;6.28;;;2.22;;
11488;SDS011;5801;50.804;12.638;2023-05-17T09:56:35;5.75;;;2.22;;
11488;SDS011;5801;50.804;12.638;2023-05-17T09:59:01;3.80;;;1.88;;
11488;SDS011;5801;50.804;12.638;2023-05-17T10:01:28;5.95;;;2.60;;
11488;SDS011;5801;50.804;12.638;2023-05-17T10:03:54;8.18;;;2.85;;
11488;SDS011;5801;50.804;12.638;2023-05-17T10:06:25;12.98;;;2.55;;
11488;SDS011;5801;50.804;12.638;2023-05-17T10:08:53;5.93;;;2.10;;
11488;SDS011;5801;50.804;12.638;2023-05-17T10:11:21;5.32;;;1.88;;
11488;SDS011;5801;50.804;12.638;2023-05-17T10:13:57;5.30;;;2.25;;
11488;SDS011;5801;50.804;12.638;2023-05-17T10:16:37;6.80;;;2.40;;
11488;SDS011;5801;50.804;12.638;2023-05-17T10:19:03;6.95;;;2.13;;
11488;SDS011;5801;50.804;12.638;2023-05-17T10:21:29;6.53;;;2.15;;
11488;SDS011;5801;50.804;12.638;2023-05-17T10:23:57;7.82;;;1.95;;
11488;SDS011;5801;50.804;12.638;2023-05-17T10:26:49;5.00;;;2.38;;
11488;SDS011;5801;50.804;12.638;2023-05-17T10:29:15;6.68;;;2.35;;
11488;SDS011;5801;50.804;12.638;2023-05-17T10:31:44;4.28;;;2.55;;
11488;SDS011;5801;50.804;12.638;2023-05-17T10:34:11;4.10;;;2.25;;
11488;SDS011;5801;50.804;12.638;2023-05-17T10:36:37;10.18;;;2.92;;
11488;SDS011;5801;50.804;12.638;2023-05-17T10:39:05;6.32;;;2.40;;
11488;SDS011;5801;50.804;12.638;2023-05-17T10:41:34;7.43;;;3.03;;
11488;SDS011;5801;50.804;12.638;2023-05-17T10:44:01;5.32;;;2.72;;
11488;SDS011;5801;50.804;12.638;2023-05-17T10:46:28;8.25;;;3.03;;
11488;SDS011;5801;50.804;12.638;2023-05-17T10:48:55;6.18;;;2.45;;
11488;SDS011;5801;50.804;12.638;2023-05-17T10:51:23;7.57;;;2.40;;
11488;SDS011;5801;50.804;12.638;2023-05-17T10:56:48;4.78;;;2.33;;
11488;SDS011;5801;50.804;12.638;2023-05-17T11:02:07;4.80;;;2.00;;
11488;SDS011;5801;50.804;12.638;2023-05-17T11:04:43;8.23;;;2.72;;
11488;SDS011;5801;50.804;12.638;2023-05-17T11:09:53;4.35;;;2.40;;
11488;SDS011;5801;50.804;12.638;2023-05-17T11:15:22;10.10;;;2.78;;
11488;SDS011;5801;50.804;12.638;2023-05-17T11:17:52;6.97;;;2.47;;
11488;SDS011;5801;50.804;12.638;2023-05-17T11:23:02;7.20;;;2.38;;
11488;SDS011;5801;50.804;12.638;2023-05-17T11:25:33;6.78;;;2.58;;
11488;SDS011;5801;50.804;12.638;2023-05-17T11:28:16;8.95;;;2.17;;
11488;SDS011;5801;50.804;12.638;2023-05-17T11:30:44;6.45;;;2.42;;
11488;SDS011;5801;50.804;12.638;2023-05-17T11:33:16;6.57;;;2.10;;
11488;SDS011;5801;50.804;12.638;2023-05-17T11:35:42;4.55;;;1.90;;
11488;SDS011;5801;50.804;12.638;2023-05-17T11:38:15;8.32;;;1.77;;
11488;SDS011;5801;50.804;12.638;2023-05-17T11:40:47;4.70;;;1.70;;
11488;SDS011;5801;50.804;12.638;2023-05-17T11:43:18;8.10;;;2.70;;
11488;SDS011;5801;50.804;12.638;2023-05-17T11:45:52;6.85;;;1.85;;
11488;SDS011;5801;50.804;12.638;2023-05-17T11:48:22;3.75;;;1.65;;
11488;SDS011;5801;50.804;12.638;2023-05-17T11:50:50;7.55;;;2.13;;
11488;SDS011;5801;50.804;12.638;2023-05-17T11:53:16;3.20;;;1.88;;
11488;SDS011;5801;50.804;12.638;2023-05-17T11:55:43;3.13;;;1.52;;
11488;SDS011;5801;50.804;12.638;2023-05-17T11:58:12;4.45;;;1.73;;
11488;SDS011;5801;50.804;12.638;2023-05-17T12:00:39;6.97;;;1.88;;
11488;SDS011;5801;50.804;12.638;2023-05-17T12:03:19;7.20;;;1.52;;
11488;SDS011;5801;50.804;12.638;2023-05-17T12:08:27;4.75;;;1.88;;
11488;SDS011;5801;50.804;12.638;2023-05-17T12:10:53;6.88;;;1.58;;
11488;SDS011;5801;50.804;12.638;2023-05-17T12:13:20;10.98;;;2.08;;
11488;SDS011;5801;50.804;12.638;2023-05-17T12:15:53;3.40;;;1.73;;
11488;SDS011;5801;50.804;12.638;2023-05-17T12:18:43;7.65;;;1.73;;
11488;SDS011;5801;50.804;12.638;2023-05-17T12:21:11;3.25;;;1.55;;
11488;SDS011;5801;50.804;12.638;2023-05-17T12:23:39;5.13;;;1.75;;
11488;SDS011;5801;50.804;12.638;2023-05-17T12:26:14;12.07;;;2.30;;
11488;SDS011;5801;50.804;12.638;2023-05-17T12:28:42;3.00;;;1.45;;
11488;SDS011;5801;50.804;12.638;2023-05-17T12:31:11;7.25;;;1.70;;
11488;SDS011;5801;50.804;12.638;2023-05-17T12:33:40;5.45;;;1.77;;
11488;SDS011;5801;50.804;12.638;2023-05-17T12:36:08;7.18;;;1.85;;
11488;SDS011;5801;50.804;12.638;2023-05-17T12:38:36;6.47;;;1.83;;
11488;SDS011;5801;50.804;12.638;2023-05-17T12:41:04;5.38;;;1.60;;
11488;SDS011;5801;50.804;12.638;2023-05-17T12:43:32;8.05;;;1.60;;
11488;SDS011;5801;50.804;12.638;2023-05-17T12:46:05;5.70;;;1.88;;
11488;SDS011;5801;50.804;12.638;2023-05-17T12:48:37;7.60;;;1.85;;
11488;SDS011;5801;50.804;12.638;2023-05-17T12:51:07;6.25;;;1.65;;
11488;SDS011;5801;50.804;12.638;2023-05-17T12:53:39;4.43;;;1.48;;
11488;SDS011;5801;50.804;12.638;2023-05-17T12:56:06;5.40;;;1.90;;
11488;SDS011;5801;50.804;12.638;2023-05-17T12:58:32;5.65;;;1.95;;
11488;SDS011;5801;50.804;12.638;2023-05-17T13:01:01;5.97;;;1.92;;
11488;SDS011;5801;50.804;12.638;2023-05-17T13:03:29;5.25;;;2.00;;
11488;SDS011;5801;50.804;12.638;2023-05-17T13:06:01;12.43;;;2.00;;
11488;SDS011;5801;50.804;12.638;2023-05-17T13:08:27;6.82;;;2.05;;
11488;SDS011;5801;50.804;12.638;2023-05-17T13:13:42;5.20;;;1.95;;
11488;SDS011;5801;50.804;12.638;2023-05-17T13:16:10;4.50;;;1.65;;
11488;SDS011;5801;50.804;12.638;2023-05-17T13:18:51;6.75;;;1.85;;
11488;SDS011;5801;50.804;12.638;2023-05-17T13:21:17;6.47;;;1.73;;
11488;SDS011;5801;50.804;12.638;2023-05-17T13:23:45;4.72;;;1.45;;
11488;SDS011;5801;50.804;12.638;2023-05-17T13:26:11;4.57;;;1.70;;
11488;SDS011;5801;50.804;12.638;2023-05-17T13:28:37;7.95;;;1.55;;
11488;SDS011;5801;50.804;12.638;2023-05-17T13:31:04;4.35;;;1.70;;
11488;SDS011;5801;50.804;12.638;2023-05-17T13:33:29;4.45;;;1.73;;
11488;SDS011;5801;50.804;12.638;2023-05-17T13:35:55;3.35;;;1.80;;
11488;SDS011;5801;50.804;12.638;2023-05-17T13:38:20;6.30;;;1.73;;
11488;SDS011;5801;50.804;12.638;2023-05-17T13:40:46;6.93;;;2.03;;
11488;SDS011;5801;50.804;12.638;2023-05-17T13:43:11;3.92;;;1.50;;
11488;SDS011;5801;50.804;12.638;2023-05-17T13:45:37;2.65;;;1.55;;
11488;SDS011;5801;50.804;12.638;2023-05-17T13:48:02;4.93;;;1.60;;
11488;SDS011;5801;50.804;12.638;2023-05-17T13:50:28;4.18;;;1.25;;
11488;SDS011;5801;50.804;12.638;2023-05-17T13:52:54;4.72;;;1.17;;
11488;SDS011;5801;50.804;12.638;2023-05-17T13:55:19;1.60;;;1.10;;
11488;SDS011;5801;50.804;12.638;2023-05-17T13:57:45;5.15;;;1.50;;
11488;SDS011;5801;50.804;12.638;2023-05-17T14:00:11;5.38;;;1.77;;
11488;SDS011;5801;50.804;12.638;2023-05-17T14:02:37;4.15;;;1.55;;
11488;SDS011;5801;50.804;12.638;2023-05-17T14:05:02;4.43;;;2.00;;
11488;SDS011;5801;50.804;12.638;2023-05-17T14:07:31;12.02;;;2.08;;
11488;SDS011;5801;50.804;12.638;2023-05-17T14:09:56;4.90;;;1.20;;
11488;SDS011;5801;50.804;12.638;2023-05-17T14:12:22;7.38;;;1.45;;
11488;SDS011;5801;50.804;12.638;2023-05-17T14:14:48;5.93;;;2.08;;
11488;SDS011;5801;50.804;12.638;2023-05-17T14:17:13;7.85;;;1.70;;
11488;SDS011;5801;50.804;12.638;2023-05-17T14:19:39;6.55;;;2.25;;
11488;SDS011;5801;50.804;12.638;2023-05-17T14:22:04;10.55;;;2.90;;
11488;SDS011;5801;50.804;12.638;2023-05-17T14:24:30;4.57;;;2.05;;
11488;SDS011;5801;50.804;12.638;2023-05-17T14:26:55;3.55;;;1.40;;
11488;SDS011;5801;50.804;12.638;2023-05-17T14:29:21;4.80;;;1.30;;
11488;SDS011;5801;50.804;12.638;2023-05-17T14:31:47;3.40;;;1.45;;
11488;SDS011;5801;50.804;12.638;2023-05-17T14:34:12;9.23;;;1.73;;
11488;SDS011;5801;50.804;12.638;2023-05-17T14:36:38;8.02;;;2.30;;
11488;SDS011;5801;50.804;12.638;2023-05-17T14:39:03;7.78;;;1.85;;
11488;SDS011;5801;50.804;12.638;2023-05-17T14:41:29;2.55;;;1.50;;
11488;SDS011;5801;50.804;12.638;2023-05-17T14:43:55;3.88;;;1.67;;
11488;SDS011;5801;50.804;12.638;2023-05-17T14:46:20;5.28;;;1.52;;
11488;SDS011;5801;50.804;12.638;2023-05-17T14:48:46;10.35;;;1.63;;
11488;SDS011;5801;50.804;12.638;2023-05-17T14:51:11;5.93;;;1.50;;
11488;SDS011;5801;50.804;12.638;2023-05-17T14:53:37;3.42;;;1.67;;
11488;SDS011;5801;50.804;12.638;2023-05-17T14:56:02;3.38;;;1.55;;
11488;SDS011;5801;50.804;12.638;2023-05-17T14:58:28;6.95;;;1.60;;
11488;SDS011;5801;50.804;12.638;2023-05-17T15:00:54;4.22;;;1.40;;
11488;SDS011;5801;50.804;12.638;2023-05-17T15:03:23;5.45;;;1.50;;
11488;SDS011;5801;50.804;12.638;2023-05-17T15:05:55;6.97;;;1.90;;
11488;SDS011;5801;50.804;12.638;2023-05-17T15:08:22;8.55;;;1.88;;
11488;SDS011;5801;50.804;12.638;2023-05-17T15:10:48;5.03;;;1.35;;
11488;SDS011;5801;50.804;12.638;2023-05-17T15:13:14;4.05;;;1.80;;
11488;SDS011;5801;50.804;12.638;2023-05-17T15:15:41;5.65;;;1.60;;
11488;SDS011;5801;50.804;12.638;2023-05-17T15:18:08;4.38;;;1.60;;